createdAt,value
2018-09-27T00:00:29.688Z,11.36
2018-09-27T00:02:58.405Z,11.53
2018-09-27T00:05:27.183Z,11.62
2018-09-27T00:07:56.009Z,11.45
2018-09-27T00:10:25.553Z,11.52
2018-09-27T00:12:54.310Z,11.39
2018-09-27T00:15:24.104Z,11.20
2018-09-27T00:17:53.064Z,11.08
2018-09-27T00:20:22.953Z,11.13
2018-09-27T00:22:52.324Z,10.99
2018-09-27T00:25:21.760Z,10.48
2018-09-27T00:27:50.620Z,10.26
2018-09-27T00:30:19.560Z,10.14
2018-09-27T00:32:48.320Z,10.21
2018-09-27T00:35:17.438Z,10.43
2018-09-27T00:37:47.813Z,10.89
2018-09-27T00:40:16.440Z,11.18
2018-09-27T00:42:45.189Z,11.20
2018-09-27T00:45:13.820Z,11.24
2018-09-27T00:47:42.580Z,11.29
2018-09-27T00:50:11.493Z,11.26
2018-09-27T00:52:40.475Z,11.20
2018-09-27T00:55:09.187Z,11.07
2018-09-27T00:57:37.722Z,10.93
2018-09-27T01:00:07.182Z,10.85
2018-09-27T01:02:36.372Z,10.59
2018-09-27T01:05:05.143Z,10.30
2018-09-27T01:07:33.754Z,10.29
2018-09-27T01:10:02.232Z,10.52
2018-09-27T01:12:30.802Z,10.81
2018-09-27T01:14:59.299Z,11.06
2018-09-27T01:17:27.888Z,11.11
2018-09-27T01:19:56.581Z,11.10
2018-09-27T01:22:25.480Z,11.10
2018-09-27T01:24:53.968Z,10.64
2018-09-27T01:27:23.063Z,10.17
2018-09-27T01:29:51.536Z,10.01
2018-09-27T01:32:20.027Z,9.86
2018-09-27T01:34:48.681Z,9.79
2018-09-27T01:37:17.119Z,9.60
2018-09-27T01:39:45.627Z,9.64
2018-09-27T01:42:14.139Z,9.95
2018-09-27T01:44:42.754Z,10.24
2018-09-27T01:47:11.343Z,10.56
2018-09-27T01:49:39.907Z,10.84
2018-09-27T01:52:08.662Z,11.04
2018-09-27T01:54:37.243Z,11.02
2018-09-27T01:57:05.727Z,11.10
2018-09-27T01:59:34.259Z,11.13
2018-09-27T02:02:02.838Z,10.59
2018-09-27T02:04:31.318Z,10.11
2018-09-27T02:07:00.573Z,9.79
2018-09-27T02:09:29.227Z,9.65
2018-09-27T02:11:57.846Z,9.69
2018-09-27T02:14:26.318Z,9.55
2018-09-27T02:16:55.626Z,9.61
2018-09-27T02:19:24.243Z,9.96
2018-09-27T02:21:52.777Z,10.33
2018-09-27T02:24:21.312Z,10.65
2018-09-27T02:26:49.891Z,10.80
2018-09-27T02:29:18.338Z,10.73
2018-09-27T02:31:46.942Z,10.72
2018-09-27T02:34:15.447Z,10.71
2018-09-27T02:36:43.892Z,10.38
2018-09-27T02:39:12.597Z,10.02
2018-09-27T02:41:41.773Z,9.84
2018-09-27T02:44:10.384Z,9.67
2018-09-27T02:46:39.473Z,9.39
2018-09-27T02:49:07.914Z,9.22
2018-09-27T02:51:36.482Z,9.30
2018-09-27T02:54:06.007Z,9.77
2018-09-27T02:56:35.274Z,10.11
2018-09-27T02:59:03.825Z,10.24
2018-09-27T03:01:32.329Z,10.50
2018-09-27T03:04:01.069Z,10.64
2018-09-27T03:06:30.074Z,10.64
2018-09-27T03:08:58.577Z,10.64
2018-09-27T03:11:27.773Z,10.44
2018-09-27T03:13:56.421Z,10.03
2018-09-27T03:16:24.997Z,9.72
2018-09-27T03:18:53.610Z,9.40
2018-09-27T03:21:22.172Z,9.15
2018-09-27T03:23:50.777Z,9.05
2018-09-27T03:26:19.269Z,9.06
2018-09-27T03:28:47.737Z,9.32
2018-09-27T03:31:16.251Z,9.77
2018-09-27T03:33:44.742Z,10.08
2018-09-27T03:36:13.483Z,10.33
2018-09-27T03:38:42.012Z,10.52
2018-09-27T03:41:10.502Z,10.43
2018-09-27T03:43:39.094Z,10.50
2018-09-27T03:46:07.897Z,10.43
2018-09-27T03:48:36.539Z,9.99
2018-09-27T03:51:05.013Z,9.62
2018-09-27T03:53:33.517Z,9.45
2018-09-27T03:56:02.913Z,9.19
2018-09-27T03:58:31.428Z,9.07
2018-09-27T04:00:59.977Z,9.02
2018-09-27T04:03:29.139Z,9.21
2018-09-27T04:05:57.693Z,9.56
2018-09-27T04:08:27.449Z,9.87
2018-09-27T04:10:56.636Z,10.14
2018-09-27T04:13:25.196Z,10.34
2018-09-27T04:15:53.864Z,10.32
2018-09-27T04:18:22.521Z,10.30
2018-09-27T04:20:52.750Z,10.38
2018-09-27T04:23:22.613Z,10.34
2018-09-27T04:25:52.054Z,10.17
2018-09-27T04:28:21.368Z,9.89
2018-09-27T04:30:50.138Z,9.76
2018-09-27T04:33:18.602Z,9.59
2018-09-27T04:35:47.157Z,9.47
2018-09-27T04:38:15.622Z,9.50
2018-09-27T04:40:44.352Z,9.77
2018-09-27T04:43:13.007Z,10.01
2018-09-27T04:45:42.812Z,10.23
2018-09-27T04:48:11.353Z,10.33
2018-09-27T04:50:39.872Z,10.33
2018-09-27T04:53:08.499Z,10.23
2018-09-27T04:55:37.085Z,10.28
2018-09-27T04:58:05.644Z,10.14
2018-09-27T05:00:34.161Z,9.95
2018-09-27T05:03:02.735Z,9.77
2018-09-27T05:05:31.923Z,9.50
2018-09-27T05:08:00.662Z,9.07
2018-09-27T05:10:29.233Z,8.84
2018-09-27T05:12:58.567Z,8.89
2018-09-27T05:15:27.074Z,9.17
2018-09-27T05:17:55.653Z,9.46
2018-09-27T05:20:25.004Z,9.64
2018-09-27T05:22:53.742Z,9.91
2018-09-27T05:25:22.172Z,10.08
2018-09-27T05:27:50.767Z,10.08
2018-09-27T05:30:19.267Z,10.16
2018-09-27T05:32:47.992Z,10.05
2018-09-27T05:35:16.485Z,9.68
2018-09-27T05:37:45.038Z,9.33
2018-09-27T05:40:13.494Z,9.12
2018-09-27T05:42:42.013Z,9.23
2018-09-27T05:45:10.492Z,9.37
2018-09-27T05:47:39.001Z,9.45
2018-09-27T05:50:08.357Z,9.56
2018-09-27T05:52:38.062Z,9.77
2018-09-27T05:55:06.737Z,9.98
2018-09-27T05:57:35.293Z,10.13
2018-09-27T06:00:03.782Z,10.28
2018-09-27T06:02:32.283Z,10.22
2018-09-27T06:05:00.809Z,10.19
2018-09-27T06:07:29.310Z,10.25
2018-09-27T06:09:57.792Z,9.84
2018-09-27T06:12:26.290Z,9.42
2018-09-27T06:14:55.167Z,9.04
2018-09-27T06:17:23.643Z,8.80
2018-09-27T06:19:52.349Z,8.64
2018-09-27T06:22:20.737Z,8.62
2018-09-27T06:24:50.094Z,8.79
2018-09-27T06:27:18.697Z,9.23
2018-09-27T06:29:47.194Z,9.63
2018-09-27T06:32:15.688Z,9.93
2018-09-27T06:34:44.903Z,10.20
2018-09-27T06:37:13.453Z,10.35
2018-09-27T06:39:42.085Z,10.48
2018-09-27T06:42:10.692Z,10.66
2018-09-27T06:44:39.291Z,10.71
2018-09-27T06:47:08.596Z,10.71
2018-09-27T06:49:37.078Z,10.71
2018-09-27T06:52:05.608Z,10.75
2018-09-27T06:54:34.208Z,10.87
2018-09-27T06:57:02.751Z,11.04
2018-09-27T06:59:31.367Z,11.20
2018-09-27T07:01:59.891Z,11.42
2018-09-27T07:04:28.451Z,11.55
2018-09-27T07:06:56.967Z,12.16
2018-09-27T07:09:25.556Z,12.59
2018-09-27T07:11:54.267Z,12.85
2018-09-27T07:14:22.949Z,13.18
2018-09-27T07:16:51.603Z,13.55
2018-09-27T07:19:20.213Z,13.87
2018-09-27T07:21:48.833Z,14.05
2018-09-27T07:24:17.394Z,14.24
2018-09-27T07:26:46.540Z,14.43
2018-09-27T07:29:15.703Z,14.50
2018-09-27T07:31:44.193Z,14.89
2018-09-27T07:34:12.798Z,15.63
2018-09-27T07:36:41.362Z,16.27
2018-09-27T07:39:11.467Z,16.80
2018-09-27T07:41:40.302Z,17.05
2018-09-27T07:44:10.067Z,17.09
2018-09-27T07:46:39.283Z,17.09
2018-09-27T07:49:08.368Z,17.17
2018-09-27T07:51:36.992Z,17.25
2018-09-27T07:54:05.552Z,17.51
2018-09-27T07:56:34.175Z,17.46
2018-09-27T07:59:02.746Z,17.23
2018-09-27T08:01:31.374Z,17.19
2018-09-27T08:03:59.872Z,17.52
2018-09-27T08:06:28.357Z,17.74
2018-09-27T08:08:56.908Z,17.96
2018-09-27T08:11:25.545Z,17.87
2018-09-27T08:13:54.072Z,18.21
2018-09-27T08:16:22.623Z,18.61
2018-09-27T08:18:51.142Z,18.60
2018-09-27T08:21:19.844Z,18.72
2018-09-27T08:23:48.273Z,18.50
2018-09-27T08:26:16.731Z,18.52
2018-09-27T08:28:45.287Z,18.62
2018-09-27T08:31:13.845Z,18.69
2018-09-27T08:33:42.285Z,19.04
2018-09-27T08:36:10.965Z,19.23
2018-09-27T08:38:39.719Z,19.16
2018-09-27T08:41:08.242Z,19.01
2018-09-27T08:43:36.722Z,19.00
2018-09-27T08:46:05.455Z,19.15
2018-09-27T08:48:34.950Z,19.50
2018-09-27T08:51:03.745Z,19.41
2018-09-27T08:53:32.406Z,19.48
2018-09-27T08:56:01.819Z,19.35
2018-09-27T08:58:31.318Z,19.07
2018-09-27T09:01:00.031Z,19.08
2018-09-27T09:03:28.752Z,19.28
2018-09-27T09:05:57.297Z,19.41
2018-09-27T09:08:25.831Z,19.74
2018-09-27T09:10:54.421Z,19.74
2018-09-27T09:13:22.999Z,20.05
2018-09-27T09:15:51.527Z,20.37
2018-09-27T09:18:20.266Z,20.50
2018-09-27T09:20:48.923Z,20.70
2018-09-27T09:23:17.637Z,20.63
2018-09-27T09:25:46.270Z,20.76
2018-09-27T09:28:15.011Z,20.70
2018-09-27T09:30:43.548Z,20.53
2018-09-27T09:33:12.272Z,20.46
2018-09-27T09:35:40.979Z,20.50
2018-09-27T09:38:10.196Z,20.96
2018-09-27T09:40:38.753Z,20.85
2018-09-27T09:43:07.445Z,21.02
2018-09-27T09:45:36.064Z,21.54
2018-09-27T09:48:04.721Z,21.76
2018-09-27T09:50:33.302Z,21.64
2018-09-27T09:53:01.883Z,21.65
2018-09-27T09:55:30.541Z,21.88
2018-09-27T09:57:59.131Z,21.79
2018-09-27T10:00:27.677Z,22.09
2018-09-27T10:02:56.270Z,21.85
2018-09-27T10:05:25.116Z,21.64
2018-09-27T10:07:53.709Z,21.98
2018-09-27T10:10:22.306Z,22.31
2018-09-27T10:12:51.204Z,22.34
2018-09-27T10:15:19.871Z,22.18
2018-09-27T10:17:48.518Z,21.90
2018-09-27T10:20:17.208Z,21.96
2018-09-27T10:22:45.781Z,22.20
2018-09-27T10:25:14.411Z,22.47
2018-09-27T10:27:42.983Z,22.72
2018-09-27T10:30:12.177Z,22.71
2018-09-27T10:32:41.405Z,22.39
2018-09-27T10:35:10.900Z,22.31
2018-09-27T10:37:39.512Z,22.30
2018-09-27T10:40:08.137Z,22.29
2018-09-27T10:42:36.744Z,22.54
2018-09-27T10:45:05.986Z,22.74
2018-09-27T10:47:34.723Z,22.71
2018-09-27T10:50:03.403Z,22.66
2018-09-27T10:52:32.027Z,22.64
2018-09-27T10:55:00.658Z,22.84
2018-09-27T10:57:29.259Z,23.10
2018-09-27T10:59:57.927Z,22.86
2018-09-27T11:02:26.540Z,22.97
2018-09-27T11:04:55.105Z,23.11
2018-09-27T11:07:23.735Z,23.15
2018-09-27T11:09:52.336Z,23.42
2018-09-27T11:12:21.044Z,23.43
2018-09-27T11:14:50.401Z,23.47
2018-09-27T11:17:19.172Z,23.53
2018-09-27T11:19:47.763Z,23.59
2018-09-27T11:22:16.338Z,23.50
2018-09-27T11:24:44.981Z,23.30
2018-09-27T11:27:13.772Z,23.20
2018-09-27T11:29:47.501Z,23.16
2018-09-27T11:32:22.097Z,23.01
2018-09-27T11:34:50.718Z,22.90
2018-09-27T11:37:19.277Z,23.00
2018-09-27T11:39:47.868Z,23.11
2018-09-27T11:42:16.453Z,22.91
2018-09-27T11:44:45.025Z,22.78
2018-09-27T11:47:13.637Z,22.94
2018-09-27T11:49:42.227Z,23.05
2018-09-27T11:52:12.231Z,23.23
2018-09-27T11:54:41.991Z,23.32
2018-09-27T11:57:10.556Z,23.29
2018-09-27T11:59:39.599Z,23.30
2018-09-27T12:02:08.304Z,23.33
2018-09-27T12:04:37.992Z,23.43
2018-09-27T12:07:06.778Z,23.27
2018-09-27T12:09:35.383Z,23.11
2018-09-27T12:12:04.055Z,23.04
2018-09-27T12:14:32.833Z,23.13
2018-09-27T12:17:01.796Z,23.34
2018-09-27T12:19:31.034Z,23.26
2018-09-27T12:22:00.358Z,23.29
2018-09-27T12:24:29.026Z,23.44
2018-09-27T12:26:57.618Z,23.54
2018-09-27T12:29:26.893Z,23.58
2018-09-27T12:31:56.796Z,23.71
2018-09-27T12:34:25.598Z,23.69
2018-09-27T12:36:54.491Z,23.78
2018-09-27T12:39:23.056Z,23.75
2018-09-27T12:41:51.939Z,23.74
2018-09-27T12:44:21.316Z,23.72
2018-09-27T12:46:50.118Z,23.79
2018-09-27T12:49:18.627Z,23.67
2018-09-27T12:51:48.126Z,23.75
2018-09-27T12:54:16.817Z,23.75
2018-09-27T12:56:45.756Z,23.93
2018-09-27T12:59:15.860Z,24.07
2018-09-27T13:01:44.682Z,24.00
2018-09-27T13:04:13.189Z,23.89
2018-09-27T13:06:42.665Z,23.77
2018-09-27T13:09:11.641Z,23.78
2018-09-27T13:11:40.769Z,23.95
2018-09-27T13:14:08.828Z,23.91
2018-09-27T13:16:37.482Z,23.84
2018-09-27T13:19:06.160Z,23.71
2018-09-27T13:21:34.796Z,23.62
2018-09-27T13:24:03.443Z,23.68
2018-09-27T13:26:32.151Z,23.82
2018-09-27T13:29:00.826Z,23.80
2018-09-27T13:31:29.456Z,23.76
2018-09-27T13:33:58.172Z,23.85
2018-09-27T13:36:26.999Z,23.82
2018-09-27T13:38:55.796Z,23.94
2018-09-27T13:41:24.341Z,24.00
2018-09-27T13:43:53.021Z,23.86
2018-09-27T13:46:21.592Z,23.79
2018-09-27T13:48:50.172Z,23.79
2018-09-27T13:51:18.812Z,23.71
2018-09-27T13:53:48.157Z,23.72
2018-09-27T13:56:17.015Z,23.63
2018-09-27T13:58:45.593Z,23.47
2018-09-27T14:01:14.303Z,23.53
2018-09-27T14:03:43.352Z,23.65
2018-09-27T14:06:11.927Z,23.65
2018-09-27T14:08:40.635Z,23.50
2018-09-27T14:11:09.325Z,23.38
2018-09-27T14:13:37.905Z,23.35
2018-09-27T14:16:06.697Z,23.47
2018-09-27T14:18:36.007Z,23.62
2018-09-27T14:21:04.789Z,23.74
2018-09-27T14:23:33.419Z,23.72
2018-09-27T14:26:02.095Z,23.64
2018-09-27T14:28:30.631Z,23.59
2018-09-27T14:30:59.704Z,23.49
2018-09-27T14:33:28.990Z,23.44
2018-09-27T14:35:57.914Z,23.40
2018-09-27T14:38:27.162Z,23.44
2018-09-27T14:40:55.794Z,23.55
2018-09-27T14:43:24.303Z,23.41
2018-09-27T14:45:53.534Z,23.19
2018-09-27T14:48:22.791Z,23.21
2018-09-27T14:50:51.505Z,23.21
2018-09-27T14:53:20.044Z,23.11
2018-09-27T14:55:48.619Z,23.19
2018-09-27T14:58:17.300Z,23.29
2018-09-27T15:00:46.035Z,23.21
2018-09-27T15:03:14.637Z,23.24
2018-09-27T15:05:44.019Z,23.26
2018-09-27T15:08:12.601Z,23.22
2018-09-27T15:10:41.387Z,22.92
2018-09-27T15:13:10.519Z,22.95
2018-09-27T15:15:39.228Z,22.88
2018-09-27T15:18:07.965Z,22.91
2018-09-27T15:20:37.117Z,23.03
2018-09-27T15:23:05.682Z,23.10
2018-09-27T15:25:35.076Z,23.18
2018-09-27T15:28:03.782Z,23.12
2018-09-27T15:30:32.585Z,22.89
2018-09-27T15:33:01.122Z,22.87
2018-09-27T15:35:29.716Z,22.85
2018-09-27T15:37:58.371Z,22.77
2018-09-27T15:40:27.026Z,22.78
2018-09-27T15:42:55.848Z,22.69
2018-09-27T15:45:24.618Z,22.60
2018-09-27T15:47:53.251Z,22.48
2018-09-27T15:50:21.930Z,22.32
2018-09-27T15:52:50.808Z,22.27
2018-09-27T15:55:19.436Z,22.24
2018-09-27T15:57:48.061Z,22.30
2018-09-27T16:00:16.722Z,22.33
2018-09-27T16:02:45.296Z,22.10
2018-09-27T16:05:14.726Z,22.09
2018-09-27T16:07:43.447Z,21.87
2018-09-27T16:10:12.181Z,21.89
2018-09-27T16:12:41.676Z,21.71
2018-09-27T16:15:10.321Z,21.47
2018-09-27T16:17:38.914Z,21.40
2018-09-27T16:20:07.512Z,21.37
2018-09-27T16:22:36.757Z,21.20
2018-09-27T16:25:05.912Z,21.24
2018-09-27T16:27:34.637Z,21.05
2018-09-27T16:30:04.007Z,20.94
2018-09-27T16:32:32.626Z,20.78
2018-09-27T16:35:01.348Z,20.65
2018-09-27T16:37:30.005Z,20.39
2018-09-27T16:39:59.422Z,20.38
2018-09-27T16:42:28.159Z,20.34
2018-09-27T16:44:56.809Z,20.23
2018-09-27T16:47:25.510Z,20.07
2018-09-27T16:49:54.151Z,20.05
2018-09-27T16:52:22.894Z,19.84
2018-09-27T16:54:51.488Z,19.51
2018-09-27T16:57:20.169Z,19.22
2018-09-27T16:59:48.945Z,18.96
2018-09-27T17:02:17.759Z,18.73
2018-09-27T17:04:46.635Z,18.57
2018-09-27T17:07:15.476Z,18.40
2018-09-27T17:09:44.124Z,18.20
2018-09-27T17:12:12.671Z,18.08
2018-09-27T17:14:41.262Z,17.91
2018-09-27T17:17:10.076Z,17.83
2018-09-27T17:19:38.781Z,17.70
2018-09-27T17:22:07.406Z,17.63
2018-09-27T17:24:36.764Z,17.44
2018-09-27T17:27:05.617Z,17.33
2018-09-27T17:29:34.976Z,17.15
2018-09-27T17:32:04.506Z,16.95
2018-09-27T17:34:33.144Z,16.75
2018-09-27T17:37:02.241Z,16.60
2018-09-27T17:39:31.630Z,16.45
2018-09-27T17:42:00.210Z,16.33
2018-09-27T17:44:28.774Z,16.23
2018-09-27T17:46:57.473Z,16.18
2018-09-27T17:49:26.153Z,16.00
2018-09-27T17:51:54.827Z,15.80
2018-09-27T17:54:23.670Z,15.59
2018-09-27T17:56:52.336Z,15.49
2018-09-27T17:59:20.943Z,15.41
2018-09-27T18:01:49.621Z,15.42
2018-09-27T18:04:18.333Z,15.30
2018-09-27T18:06:47.085Z,15.19
2018-09-27T18:09:15.988Z,15.10
2018-09-27T18:11:44.931Z,15.04
2018-09-27T18:14:13.618Z,14.89
2018-09-27T18:16:43.178Z,14.68
2018-09-27T18:19:11.837Z,14.68
2018-09-27T18:21:40.605Z,14.73
2018-09-27T18:24:09.180Z,14.63
2018-09-27T18:26:37.736Z,14.57
2018-09-27T18:29:06.539Z,14.54
2018-09-27T18:31:35.551Z,14.44
2018-09-27T18:34:04.301Z,14.43
2018-09-27T18:36:32.862Z,14.35
2018-09-27T18:39:01.915Z,14.29
2018-09-27T18:41:30.530Z,14.27
2018-09-27T18:43:59.280Z,14.16
2018-09-27T18:46:27.885Z,14.12
2018-09-27T18:48:56.465Z,14.09
2018-09-27T18:51:25.828Z,13.92
2018-09-27T18:53:55.121Z,13.88
2018-09-27T18:56:24.754Z,13.80
2018-09-27T18:58:53.384Z,13.74
2018-09-27T19:01:22.561Z,13.72
2018-09-27T19:03:51.280Z,13.68
2018-09-27T19:06:19.842Z,13.65
2018-09-27T19:08:48.489Z,13.60
2018-09-27T19:11:17.096Z,13.63
2018-09-27T19:13:45.640Z,13.49
2018-09-27T19:16:14.355Z,13.26
2018-09-27T19:18:42.920Z,13.20
2018-09-27T19:21:11.925Z,13.16
2018-09-27T19:23:40.970Z,13.09
2018-09-27T19:26:09.565Z,13.05
2018-09-27T19:28:38.153Z,13.00
2018-09-27T19:31:06.753Z,12.97
2018-09-27T19:33:35.284Z,12.87
2018-09-27T19:36:03.923Z,12.80
2018-09-27T19:38:32.490Z,12.83
2018-09-27T19:41:01.179Z,13.10
2018-09-27T19:43:29.762Z,13.13
2018-09-27T19:45:58.286Z,12.99
2018-09-27T19:48:27.024Z,12.80
2018-09-27T19:50:55.642Z,12.76
2018-09-27T19:53:24.209Z,12.65
2018-09-27T19:55:52.873Z,12.78
2018-09-27T19:58:21.424Z,12.82
2018-09-27T20:00:49.965Z,12.74
2018-09-27T20:03:18.533Z,12.51
2018-09-27T20:05:47.133Z,12.33
2018-09-27T20:08:15.749Z,12.31
2018-09-27T20:10:44.330Z,12.34
2018-09-27T20:13:12.885Z,12.29
2018-09-27T20:15:41.526Z,12.26
2018-09-27T20:18:10.036Z,12.18
2018-09-27T20:20:38.654Z,12.03
2018-09-27T20:23:07.277Z,12.10
2018-09-27T20:25:35.900Z,12.12
2018-09-27T20:28:04.527Z,12.11
2018-09-27T20:30:33.075Z,11.99
2018-09-27T20:33:01.676Z,12.02
2018-09-27T20:35:30.213Z,12.19
2018-09-27T20:37:58.785Z,12.27
2018-09-27T20:40:27.384Z,12.22
2018-09-27T20:42:55.964Z,11.98
2018-09-27T20:45:24.530Z,12.02
2018-09-27T20:47:53.125Z,12.18
2018-09-27T20:50:21.769Z,12.31
2018-09-27T20:52:50.335Z,12.22
2018-09-27T20:55:18.946Z,12.26
2018-09-27T20:57:47.744Z,12.36
2018-09-27T21:00:16.465Z,12.30
2018-09-27T21:02:45.600Z,12.28
2018-09-27T21:05:14.159Z,12.07
2018-09-27T21:07:42.772Z,12.14
2018-09-27T21:10:11.298Z,12.08
2018-09-27T21:12:40.200Z,11.98
2018-09-27T21:15:08.889Z,11.82
2018-09-27T21:17:37.475Z,11.82
2018-09-27T21:20:06.291Z,11.64
2018-09-27T21:22:34.809Z,11.42
2018-09-27T21:25:03.460Z,11.43
2018-09-27T21:27:32.086Z,11.50
2018-09-27T21:30:00.618Z,11.53
2018-09-27T21:32:29.292Z,11.73
2018-09-27T21:34:59.819Z,12.14
2018-09-27T21:37:28.395Z,12.50
2018-09-27T21:39:56.910Z,12.64
2018-09-27T21:42:25.993Z,12.67
2018-09-27T21:44:54.545Z,12.62
2018-09-27T21:47:23.175Z,12.32
2018-09-27T21:49:51.902Z,11.95
2018-09-27T21:52:20.444Z,11.59
2018-09-27T21:54:48.990Z,11.47
2018-09-27T21:57:18.198Z,11.37
2018-09-27T21:59:46.690Z,11.51
2018-09-27T22:02:15.788Z,11.63
2018-09-27T22:04:44.326Z,11.35
2018-09-27T22:07:12.859Z,11.40
2018-09-27T22:09:41.335Z,11.44
2018-09-27T22:12:09.945Z,11.35
2018-09-27T22:14:38.503Z,11.64
2018-09-27T22:17:06.987Z,11.83
2018-09-27T22:19:35.516Z,11.97
2018-09-27T22:22:04.018Z,12.06
2018-09-27T22:24:32.695Z,11.97
2018-09-27T22:27:01.286Z,11.75
2018-09-27T22:29:29.789Z,11.43
2018-09-27T22:31:58.931Z,11.01
2018-09-27T22:34:27.428Z,10.84
2018-09-27T22:36:55.924Z,10.83
2018-09-27T22:39:24.424Z,10.71
2018-09-27T22:41:53.024Z,10.77
2018-09-27T22:44:21.557Z,10.86
2018-09-27T22:46:50.159Z,11.08
2018-09-27T22:49:18.860Z,11.38
2018-09-27T22:51:47.453Z,11.73
2018-09-27T22:54:16.722Z,11.73
2018-09-27T22:56:45.210Z,11.84
2018-09-27T22:59:17.769Z,11.94
2018-09-27T23:01:46.295Z,11.77
2018-09-27T23:04:14.749Z,11.30
2018-09-27T23:06:43.220Z,10.85
2018-09-27T23:09:11.735Z,10.69
2018-09-27T23:11:40.181Z,10.54
2018-09-27T23:14:08.738Z,10.33
2018-09-27T23:16:37.282Z,10.35
2018-09-27T23:19:05.785Z,10.46
2018-09-27T23:21:34.283Z,10.38
2018-09-27T23:24:02.913Z,10.56
2018-09-27T23:26:31.589Z,11.08
2018-09-27T23:29:00.105Z,11.21
2018-09-27T23:31:28.992Z,11.37
2018-09-27T23:33:57.430Z,11.35
2018-09-27T23:36:25.993Z,11.29
2018-09-27T23:38:54.509Z,11.32
2018-09-27T23:41:22.992Z,11.07
2018-09-27T23:43:52.168Z,10.54
2018-09-27T23:46:20.684Z,10.56
2018-09-27T23:48:49.449Z,10.71
2018-09-27T23:51:17.924Z,10.56
2018-09-27T23:53:47.074Z,10.52
2018-09-27T23:56:15.577Z,10.75
2018-09-27T23:58:44.064Z,11.16
